Time;durP1;ratioP1;P1;durP2;ratioP2;P2;SDS_P1;SDS_P2;PMS_P1;PMS_P2;Temp;Humidity;BMP_temperature;BMP_pressure;BME280_temperature;BME280_humidity;BME280_pressure;Samples;Min_cycle;Max_cycle;Signal;HPM_P1;HPM_P2
2021/09/10 00:00:54;;;;;;;6.13;2.50;;;;;;;17.91;100.00;101575.03;5044635;28;20418;-80
2021/09/10 00:03:19;;;;;;;6.67;3.27;;;;;;;17.87;100.00;101573.56;5049232;28;20350;-80
2021/09/10 00:05:45;;;;;;;8.00;3.37;;;;;;;17.85;100.00;101580.84;5042236;28;20498;-79
2021/09/10 00:08:11;;;;;;;5.47;3.00;;;;;;;17.88;100.00;101583.25;5029479;28;20207;-78
2021/09/10 00:10:36;;;;;;;7.50;3.10;;;;;;;17.77;100.00;101583.31;5045282;28;20429;-77
2021/09/10 00:13:02;;;;;;;6.73;2.90;;;;;;;17.79;100.00;101573.38;5040030;28;20162;-76
2021/09/10 00:15:28;;;;;;;7.87;2.83;;;;;;;17.88;100.00;101577.06;5038234;28;20243;-81
2021/09/10 00:17:54;;;;;;;8.73;2.73;;;;;;;17.88;100.00;101577.91;5054202;28;20749;-79
2021/09/10 00:20:20;;;;;;;8.37;2.90;;;;;;;17.90;100.00;101572.47;5053093;28;20403;-75
2021/09/10 00:22:46;;;;;;;8.77;3.20;;;;;;;17.85;100.00;101575.53;5022023;28;20405;-73
2021/09/10 00:25:11;;;;;;;7.83;3.13;;;;;;;17.74;100.00;101588.88;5033731;28;20512;-74
2021/09/10 00:27:37;;;;;;;8.17;3.20;;;;;;;17.83;100.00;101589.91;5032053;28;20214;-75
2021/09/10 00:30:05;;;;;;;10.27;3.00;;;;;;;17.80;100.00;101585.69;5030643;28;20526;-76
2021/09/10 00:32:31;;;;;;;5.17;2.73;;;;;;;17.74;100.00;101592.38;5033383;28;20174;-75
2021/09/10 00:34:56;;;;;;;7.57;3.00;;;;;;;17.75;100.00;101591.38;5032039;28;20438;-73
2021/09/10 00:37:22;;;;;;;7.57;3.10;;;;;;;17.74;100.00;101589.69;5034344;28;20200;-77
2021/09/10 00:39:48;;;;;;;6.50;2.70;;;;;;;17.71;100.00;101591.78;5033162;28;20166;-74
2021/09/10 00:42:13;;;;;;;7.50;3.20;;;;;;;17.72;100.00;101598.78;5024709;28;20174;-77
2021/09/10 00:44:39;;;;;;;7.07;3.20;;;;;;;17.64;100.00;101594.06;5015084;28;20202;-74
2021/09/10 00:47:04;;;;;;;9.10;3.07;;;;;;;17.68;100.00;101592.00;5014079;28;20633;-76
2021/09/10 00:49:30;;;;;;;7.73;3.03;;;;;;;17.71;100.00;101597.09;5013569;28;20151;-72
2021/09/10 00:51:57;;;;;;;6.57;2.80;;;;;;;17.67;100.00;101593.81;5018190;28;20621;-73
2021/09/10 00:54:23;;;;;;;5.93;2.80;;;;;;;17.75;100.00;101594.03;5030466;28;20170;-76
2021/09/10 00:56:49;;;;;;;4.73;2.80;;;;;;;17.71;100.00;101584.66;5033020;28;20837;-75
2021/09/10 00:59:14;;;;;;;8.67;2.90;;;;;;;17.72;100.00;101582.84;5033789;28;20925;-73
2021/09/10 01:01:41;;;;;;;6.00;3.10;;;;;;;17.69;100.00;101583.91;5031091;28;20162;-76
2021/09/10 01:04:07;;;;;;;7.17;3.00;;;;;;;17.73;100.00;101579.22;5040097;28;20645;-74
2021/09/10 01:06:32;;;;;;;7.20;2.47;;;;;;;17.71;100.00;101589.13;5044431;28;20412;-75
2021/09/10 01:09:00;;;;;;;7.93;3.10;;;;;;;17.61;100.00;101585.53;5053321;28;20196;-75
2021/09/10 01:11:26;;;;;;;5.77;3.00;;;;;;;17.61;100.00;101586.38;5036399;28;20443;-79
2021/09/10 01:13:53;;;;;;;6.67;2.90;;;;;;;17.65;100.00;101594.91;5036868;28;20408;-81
2021/09/10 01:16:19;;;;;;;5.90;2.60;;;;;;;17.63;100.00;101594.22;5034150;28;20197;-81
2021/09/10 01:18:45;;;;;;;8.13;2.83;;;;;;;17.63;100.00;101600.38;5033525;28;20447;-78
2021/09/10 01:21:11;;;;;;;7.20;2.67;;;;;;;17.59;100.00;101595.41;5034694;28;20471;-80
2021/09/10 01:23:36;;;;;;;6.27;3.50;;;;;;;17.63;100.00;101588.91;5032839;28;20543;-79
2021/09/10 01:26:02;;;;;;;7.97;3.47;;;;;;;17.57;100.00;101594.72;5034091;28;20173;-81
2021/09/10 01:28:28;;;;;;;7.07;3.10;;;;;;;17.53;100.00;101604.72;5032641;28;20221;-72
2021/09/10 01:30:53;;;;;;;13.30;3.07;;;;;;;17.52;100.00;101603.06;5035798;28;20222;-72
2021/09/10 01:33:19;;;;;;;5.23;2.67;;;;;;;17.51;100.00;101592.56;5031900;28;20643;-78
2021/09/10 01:35:46;;;;;;;6.50;3.17;;;;;;;17.54;100.00;101585.19;5039178;28;20264;-73
2021/09/10 01:38:12;;;;;;;9.60;3.40;;;;;;;17.51;100.00;101579.25;5051991;28;20185;-78
2021/09/10 01:40:39;;;;;;;8.27;3.17;;;;;;;17.55;100.00;101578.06;5042173;28;20408;-78
2021/09/10 01:43:06;;;;;;;5.97;3.13;;;;;;;17.55;100.00;101580.72;5015649;28;20167;-76
2021/09/10 01:45:32;;;;;;;5.63;3.07;;;;;;;17.62;100.00;101579.25;5021989;28;20421;-81
2021/09/10 01:47:58;;;;;;;7.10;3.50;;;;;;;17.54;100.00;101579.88;5030706;28;20470;-74
2021/09/10 01:50:25;;;;;;;6.97;3.20;;;;;;;17.48;100.00;101575.91;5029870;28;20161;-79
2021/09/10 01:52:52;;;;;;;7.90;3.50;;;;;;;17.47;100.00;101590.16;5032360;28;20857;-73
2021/09/10 01:55:18;;;;;;;5.17;3.07;;;;;;;17.47;100.00;101576.03;5037071;28;20417;-76
2021/09/10 01:57:47;;;;;;;21.43;3.63;;;;;;;17.50;100.00;101573.09;5032763;28;20840;-73
2021/09/10 02:00:14;;;;;;;6.33;3.30;;;;;;;17.49;100.00;101579.41;5031623;28;20417;-73
2021/09/10 02:02:40;;;;;;;8.47;3.30;;;;;;;17.45;100.00;101592.06;5023769;28;20653;-81
2021/09/10 02:05:07;;;;;;;7.67;3.50;;;;;;;17.43;100.00;101585.22;5017893;28;20417;-80
2021/09/10 02:07:32;;;;;;;10.80;4.53;;;;;;;17.31;100.00;101576.44;5040499;28;20416;-78
2021/09/10 02:09:58;;;;;;;7.83;3.90;;;;;;;17.37;100.00;101575.91;5030103;28;20417;-74
2021/09/10 02:12:23;;;;;;;9.20;3.73;;;;;;;17.35;100.00;101574.38;5019419;28;20533;-78
2021/09/10 02:14:49;;;;;;;7.07;3.47;;;;;;;17.29;100.00;101566.91;5015070;28;20244;-76
2021/09/10 02:17:15;;;;;;;12.83;3.93;;;;;;;17.31;100.00;101560.50;5031587;28;20289;-75
2021/09/10 02:19:40;;;;;;;8.90;3.23;;;;;;;17.33;100.00;101549.75;5030360;28;20616;-73
2021/09/10 02:22:06;;;;;;;8.53;3.93;;;;;;;17.34;100.00;101549.63;5025783;28;20158;-75
2021/09/10 02:24:31;;;;;;;8.80;4.27;;;;;;;17.36;100.00;101550.34;5013315;28;20645;-75
2021/09/10 02:26:57;;;;;;;10.00;4.20;;;;;;;17.35;100.00;101551.31;5031724;28;20524;-79
2021/09/10 02:29:22;;;;;;;6.40;3.33;;;;;;;17.33;100.00;101553.25;5031714;28;20582;-81
2021/09/10 02:31:48;;;;;;;7.47;3.80;;;;;;;17.35;100.00;101550.47;5030285;28;20522;-79
2021/09/10 02:34:13;;;;;;;8.03;3.47;;;;;;;17.33;100.00;101545.28;5039593;28;20263;-78
2021/09/10 02:36:39;;;;;;;7.50;4.17;;;;;;;17.31;100.00;101546.38;5050777;28;20224;-76
2021/09/10 02:39:07;;;;;;;6.73;4.23;;;;;;;17.28;100.00;101544.81;5051811;28;20169;-79
2021/09/10 02:41:33;;;;;;;6.00;3.40;;;;;;;17.26;100.00;101553.88;5033298;28;20224;-74
2021/09/10 02:43:59;;;;;;;6.17;3.60;;;;;;;17.29;100.00;101546.50;5020344;28;20405;-79
2021/09/10 02:46:25;;;;;;;12.27;3.93;;;;;;;17.24;100.00;101550.50;5027372;28;20467;-78
2021/09/10 02:48:51;;;;;;;6.63;3.77;;;;;;;17.24;100.00;101550.50;5031718;28;20635;-75
2021/09/10 02:51:17;;;;;;;5.87;4.00;;;;;;;17.25;100.00;101546.88;5020956;28;20250;-79
2021/09/10 02:53:43;;;;;;;8.97;4.10;;;;;;;17.21;100.00;101554.25;5029044;28;20418;-72
2021/09/10 02:56:09;;;;;;;8.07;3.70;;;;;;;17.19;100.00;101551.72;5025506;28;20447;-73
2021/09/10 02:58:35;;;;;;;12.73;4.40;;;;;;;17.19;100.00;101554.38;5031661;28;20165;-74
2021/09/10 03:01:00;;;;;;;10.40;4.10;;;;;;;17.20;100.00;101553.41;5029353;28;20412;-73
2021/09/10 03:03:29;;;;;;;6.20;4.20;;;;;;;17.19;100.00;101548.22;5019400;28;20157;-77
2021/09/10 03:05:56;;;;;;;6.40;3.90;;;;;;;17.21;100.00;101546.28;5031845;28;20169;-75
2021/09/10 03:08:21;;;;;;;12.93;4.50;;;;;;;17.19;100.00;101537.59;5032065;28;20400;-78
2021/09/10 03:10:47;;;;;;;8.73;5.30;;;;;;;17.17;100.00;101528.94;5030001;28;20432;-77
2021/09/10 03:13:13;;;;;;;8.57;4.17;;;;;;;17.10;100.00;101528.56;5030641;28;20620;-79
2021/09/10 03:15:38;;;;;;;7.70;4.17;;;;;;;17.10;100.00;101527.72;5031733;28;20447;-78
2021/09/10 03:18:04;;;;;;;13.43;3.77;;;;;;;17.05;100.00;101524.59;5025286;28;20234;-75
2021/09/10 03:20:30;;;;;;;7.97;3.80;;;;;;;17.05;100.00;101521.94;5033710;28;20165;-79
2021/09/10 03:22:55;;;;;;;8.20;3.93;;;;;;;17.03;100.00;101524.72;5030656;28;20193;-79
2021/09/10 03:25:21;;;;;;;9.10;3.93;;;;;;;17.08;100.00;101529.69;5030407;28;20459;-78
2021/09/10 03:27:47;;;;;;;15.73;4.80;;;;;;;17.00;100.00;101522.31;5030654;28;20225;-79
2021/09/10 03:30:12;;;;;;;8.47;3.97;;;;;;;17.02;100.00;101519.56;5037090;28;20619;-80
2021/09/10 03:32:39;;;;;;;8.70;3.83;;;;;;;17.12;100.00;101517.81;5028421;28;20190;-81
2021/09/10 03:35:04;;;;;;;10.23;6.83;;;;;;;17.07;100.00;101525.31;5013153;28;20406;-80
2021/09/10 03:37:30;;;;;;;7.23;3.43;;;;;;;17.10;100.00;101525.91;5023955;28;20483;-80
2021/09/10 03:39:56;;;;;;;11.90;3.30;;;;;;;17.06;100.00;101532.44;5030929;28;20169;-80
2021/09/10 03:42:21;;;;;;;8.00;3.43;;;;;;;17.14;100.00;101523.84;5030567;28;20173;-81
2021/09/10 03:44:47;;;;;;;12.50;4.20;;;;;;;17.18;100.00;101527.94;5031432;28;20162;-78
2021/09/10 03:47:12;;;;;;;8.63;3.67;;;;;;;17.18;100.00;101535.91;5020574;28;20166;-79
2021/09/10 03:49:38;;;;;;;8.50;4.33;;;;;;;17.20;100.00;101531.31;5023372;28;20699;-80
2021/09/10 03:52:04;;;;;;;5.73;3.60;;;;;;;17.18;100.00;101538.56;5031527;28;20166;-69
2021/09/10 03:54:30;;;;;;;7.00;4.27;;;;;;;17.19;100.00;101525.16;5034103;28;20170;-71
2021/09/10 03:56:56;;;;;;;15.33;3.70;;;;;;;17.16;100.00;101525.44;5032798;28;20597;-71
2021/09/10 03:59:22;;;;;;;8.80;4.60;;;;;;;17.18;100.00;101526.13;5034533;28;20165;-75
2021/09/10 04:01:47;;;;;;;7.20;4.80;;;;;;;17.19;100.00;101542.91;5042192;28;20718;-76
2021/09/10 04:04:13;;;;;;;8.00;4.70;;;;;;;17.21;100.00;101535.66;5042914;28;20624;-77
2021/09/10 04:06:38;;;;;;;6.53;4.53;;;;;;;17.20;100.00;101533.97;5030216;28;20245;-75
2021/09/10 04:09:04;;;;;;;6.87;4.17;;;;;;;17.25;100.00;101533.59;5049647;28;20655;-71
2021/09/10 04:11:29;;;;;;;8.50;4.73;;;;;;;17.17;100.00;101534.22;5048573;28;20627;-80
2021/09/10 04:13:55;;;;;;;11.00;4.80;;;;;;;17.27;100.00;101534.31;5020596;28;20245;-79
2021/09/10 04:16:20;;;;;;;8.30;4.17;;;;;;;17.31;100.00;101533.94;5041163;28;20189;-75
2021/09/10 04:18:46;;;;;;;11.77;5.00;;;;;;;17.39;100.00;101534.16;5030045;28;20588;-71
2021/09/10 04:21:13;;;;;;;10.03;4.30;;;;;;;17.40;100.00;101525.22;5013580;28;20169;-73
2021/09/10 04:23:38;;;;;;;12.30;3.97;;;;;;;17.47;100.00;101523.72;5021778;28;20166;-76
2021/09/10 04:26:04;;;;;;;14.23;4.20;;;;;;;17.52;100.00;101530.47;5023957;28;20453;-70
2021/09/10 04:28:29;;;;;;;5.53;3.83;;;;;;;17.53;100.00;101535.63;5019676;28;20300;-72
2021/09/10 04:30:55;;;;;;;10.13;4.90;;;;;;;17.55;100.00;101538.19;5019426;28;20186;-78
2021/09/10 04:33:21;;;;;;;7.43;4.20;;;;;;;17.64;100.00;101532.09;5032436;28;20620;-76
2021/09/10 04:35:47;;;;;;;7.90;4.77;;;;;;;17.71;100.00;101535.97;5036668;28;20645;-81
2021/09/10 04:38:13;;;;;;;7.53;4.60;;;;;;;17.73;100.00;101536.66;5030106;28;20405;-78
2021/09/10 04:40:39;;;;;;;7.50;4.53;;;;;;;17.76;100.00;101533.78;5020322;28;20417;-74
2021/09/10 04:43:04;;;;;;;8.43;4.17;;;;;;;17.81;100.00;101533.38;5021520;28;20162;-75
2021/09/10 04:45:30;;;;;;;11.63;4.40;;;;;;;17.87;100.00;101531.03;5036609;28;20165;-77
2021/09/10 04:47:55;;;;;;;12.43;4.30;;;;;;;17.92;100.00;101536.81;5018309;28;20180;-72
2021/09/10 04:50:21;;;;;;;12.23;4.70;;;;;;;17.90;100.00;101527.25;5020874;28;20270;-80
2021/09/10 04:52:46;;;;;;;12.13;5.30;;;;;;;17.92;100.00;101533.31;5024950;28;20283;-78
2021/09/10 04:55:12;;;;;;;9.93;4.03;;;;;;;17.87;100.00;101533.69;5025771;28;20257;-73
2021/09/10 04:57:39;;;;;;;8.13;4.50;;;;;;;17.90;100.00;101541.41;5021248;28;20202;-76
2021/09/10 05:00:05;;;;;;;11.67;4.03;;;;;;;17.91;100.00;101536.91;5026569;28;20170;-77
2021/09/10 05:02:30;;;;;;;14.83;5.27;;;;;;;17.90;100.00;101533.41;5015841;28;20426;-80
2021/09/10 05:04:55;;;;;;;9.80;4.87;;;;;;;17.99;100.00;101532.66;5014219;28;20420;-78
2021/09/10 05:07:21;;;;;;;18.93;4.80;;;;;;;17.90;100.00;101528.09;5014848;28;20640;-73
2021/09/10 05:09:46;;;;;;;8.00;4.07;;;;;;;17.95;100.00;101531.22;5032916;28;20170;-79
2021/09/10 05:12:12;;;;;;;9.13;4.90;;;;;;;17.90;100.00;101538.75;5034625;28;20181;-75
2021/09/10 05:14:37;;;;;;;11.80;5.87;;;;;;;17.94;100.00;101537.53;5030035;28;20172;-72
2021/09/10 05:17:05;;;;;;;9.33;5.10;;;;;;;17.95;100.00;101531.22;5030677;28;20201;-72
2021/09/10 05:19:31;;;;;;;8.33;4.27;;;;;;;18.01;100.00;101524.56;5025821;28;20179;-71
2021/09/10 05:21:56;;;;;;;7.10;4.17;;;;;;;18.08;100.00;101530.19;5032120;28;20400;-77
2021/09/10 05:24:22;;;;;;;8.33;4.20;;;;;;;18.23;100.00;101539.50;5019670;28;20540;-80
2021/09/10 05:26:50;;;;;;;12.07;4.50;;;;;;;18.28;100.00;101534.63;5020951;28;20173;-70
2021/09/10 05:29:16;;;;;;;11.80;4.43;;;;;;;18.33;100.00;101532.41;5029646;28;20213;-78
2021/09/10 05:31:41;;;;;;;10.80;4.57;;;;;;;18.27;100.00;101541.75;5017084;28;20777;-80
2021/09/10 05:34:07;;;;;;;8.80;4.00;;;;;;;18.30;100.00;101540.66;5020331;28;20585;-75
2021/09/10 05:36:33;;;;;;;7.70;3.63;;;;;;;18.32;100.00;101538.72;5030834;28;20272;-77
2021/09/10 05:38:58;;;;;;;11.87;4.00;;;;;;;18.32;100.00;101536.03;5018465;28;20158;-74
2021/09/10 05:41:24;;;;;;;8.73;4.03;;;;;;;18.40;100.00;101522.06;5012729;28;20217;-70
2021/09/10 05:43:49;;;;;;;11.07;5.23;;;;;;;18.48;100.00;101528.41;5015088;28;20261;-78
2021/09/10 05:46:14;;;;;;;11.83;4.43;;;;;;;18.43;100.00;101535.09;5023044;28;20184;-74
2021/09/10 05:48:40;;;;;;;9.33;3.87;;;;;;;18.49;100.00;101531.91;5031677;28;20178;-77
2021/09/10 05:51:08;;;;;;;6.70;4.03;;;;;;;18.56;100.00;101538.38;5022679;28;20196;-73
2021/09/10 05:53:33;;;;;;;6.57;3.47;;;;;;;18.66;100.00;101535.78;5020121;28;20173;-74
2021/09/10 05:55:59;;;;;;;8.80;4.00;;;;;;;18.66;100.00;101541.09;5020193;28;21136;-76
2021/09/10 05:58:25;;;;;;;7.37;3.97;;;;;;;18.69;100.00;101538.19;5027128;28;20170;-81
2021/09/10 06:00:50;;;;;;;8.57;4.40;;;;;;;18.79;100.00;101547.03;5012416;28;20154;-71
2021/09/10 06:03:16;;;;;;;9.20;3.53;;;;;;;18.83;100.00;101546.63;5021253;28;20589;-78
2021/09/10 06:05:41;;;;;;;10.33;4.07;;;;;;;18.81;100.00;101545.91;5017748;28;20194;-76
2021/09/10 06:08:07;;;;;;;6.70;3.60;;;;;;;18.88;100.00;101537.38;5023310;28;20544;-75
2021/09/10 06:10:32;;;;;;;9.77;4.37;;;;;;;18.87;100.00;101547.19;5037857;28;20289;-74
2021/09/10 06:12:58;;;;;;;11.60;3.83;;;;;;;18.86;100.00;101550.84;5025377;28;20248;-74
2021/09/10 06:15:25;;;;;;;11.20;4.57;;;;;;;18.87;100.00;101549.00;5033207;28;20186;-79
2021/09/10 06:17:50;;;;;;;8.60;4.10;;;;;;;18.90;100.00;101554.94;5020686;28;20198;-73
2021/09/10 06:20:16;;;;;;;7.30;4.20;;;;;;;18.98;100.00;101544.44;5037648;28;20943;-74
2021/09/10 06:22:41;;;;;;;8.30;4.73;;;;;;;19.18;100.00;101549.78;5028589;28;20163;-76
2021/09/10 06:25:09;;;;;;;13.33;4.43;;;;;;;19.28;100.00;101550.66;5011685;28;20198;-71
2021/09/10 06:27:38;;;;;;;9.90;4.57;;;;;;;19.29;100.00;101553.16;5021193;28;20169;-73
2021/09/10 06:30:06;;;;;;;14.10;4.43;;;;;;;19.31;100.00;101553.88;5019239;28;20456;-78
2021/09/10 06:32:32;;;;;;;10.33;4.10;;;;;;;19.32;100.00;101560.88;5031989;28;20425;-75
2021/09/10 06:34:58;;;;;;;12.10;3.90;;;;;;;19.28;100.00;101553.31;5021399;28;20484;-79
2021/09/10 06:37:23;;;;;;;15.73;4.17;;;;;;;19.21;100.00;101553.03;5017337;28;20463;-81
2021/09/10 06:39:49;;;;;;;12.43;4.43;;;;;;;19.30;100.00;101554.00;5023753;28;20174;-74
2021/09/10 06:42:15;;;;;;;9.03;3.83;;;;;;;19.23;100.00;101560.88;5016911;28;20166;-82
2021/09/10 06:44:40;;;;;;;11.80;4.17;;;;;;;19.29;100.00;101560.31;5024555;28;20229;-83
2021/09/10 06:47:06;;;;;;;8.97;4.30;;;;;;;19.34;100.00;101563.41;5028753;28;20544;-77
2021/09/10 06:49:32;;;;;;;17.37;4.50;;;;;;;19.36;100.00;101564.13;5030022;28;20176;-74
2021/09/10 06:51:58;;;;;;;12.93;4.83;;;;;;;19.47;100.00;101560.47;5029729;28;20182;-75
2021/09/10 06:54:23;;;;;;;7.00;3.73;;;;;;;19.55;100.00;101556.13;5035635;28;20424;-76
2021/09/10 06:56:49;;;;;;;8.63;5.13;;;;;;;19.55;100.00;101564.09;5030081;28;20193;-83
2021/09/10 06:59:18;;;;;;;11.70;4.67;;;;;;;19.58;100.00;101558.53;5013854;28;20589;-85
2021/09/10 07:01:44;;;;;;;10.90;4.57;;;;;;;19.66;100.00;101569.34;5017386;28;20659;-79
2021/09/10 07:04:09;;;;;;;10.13;4.10;;;;;;;19.71;100.00;101566.25;5030265;28;20416;-82
2021/09/10 07:06:35;;;;;;;8.70;4.63;;;;;;;19.78;100.00;101569.19;5019419;28;20538;-83
2021/09/10 07:09:01;;;;;;;10.30;3.80;;;;;;;19.89;100.00;101567.22;5031399;28;20556;-73
2021/09/10 07:11:26;;;;;;;10.50;4.43;;;;;;;19.94;100.00;101566.78;5038840;28;20180;-87
2021/09/10 07:13:52;;;;;;;9.00;4.20;;;;;;;20.00;100.00;101570.69;5029182;28;20188;-87
2021/09/10 07:16:17;;;;;;;10.10;5.80;;;;;;;20.02;100.00;101561.56;5027824;28;20229;-77
2021/09/10 07:18:43;;;;;;;12.03;4.10;;;;;;;20.08;100.00;101570.81;5014814;28;20178;-77
2021/09/10 07:21:08;;;;;;;7.07;3.93;;;;;;;20.22;100.00;101573.88;5024241;28;20570;-87
2021/09/10 07:23:34;;;;;;;9.03;3.80;;;;;;;20.24;100.00;101571.91;5024382;28;20603;-86
2021/09/10 07:26:03;;;;;;;41.13;28.33;;;;;;;20.23;100.00;101567.56;5022748;28;20216;-82
2021/09/10 07:28:34;;;;;;;18.43;6.17;;;;;;;20.28;100.00;101575.13;5031041;28;20275;-89
2021/09/10 07:31:01;;;;;;;9.13;4.20;;;;;;;20.37;100.00;101571.59;5026542;28;20499;-80
2021/09/10 07:33:28;;;;;;;10.27;3.83;;;;;;;20.38;100.00;101567.94;5021914;28;20452;-84
2021/09/10 07:35:54;;;;;;;8.53;4.70;;;;;;;20.49;100.00;101574.97;5020909;28;20416;-77
2021/09/10 07:38:20;;;;;;;12.70;4.37;;;;;;;20.59;100.00;101581.09;5024788;28;20425;-80
2021/09/10 07:40:46;;;;;;;7.60;3.93;;;;;;;20.68;100.00;101580.22;5021068;28;20981;-80
2021/09/10 07:43:12;;;;;;;11.43;4.87;;;;;;;20.72;100.00;101578.94;5026878;28;20155;-79
2021/09/10 07:45:37;;;;;;;8.20;4.80;;;;;;;20.85;100.00;101589.25;5031319;28;20435;-79
2021/09/10 07:48:03;;;;;;;7.90;4.80;;;;;;;20.95;100.00;101583.88;5018412;28;20177;-80
2021/09/10 07:50:29;;;;;;;10.13;4.50;;;;;;;21.05;100.00;101584.66;5017874;28;20170;-79
2021/09/10 07:52:54;;;;;;;16.00;5.13;;;;;;;21.06;100.00;101578.31;5034222;28;20495;-84
2021/09/10 07:55:20;;;;;;;15.10;4.53;;;;;;;21.05;100.00;101577.47;5044100;28;20734;-80
2021/09/10 07:57:47;;;;;;;11.13;4.93;;;;;;;21.04;100.00;101581.16;5016169;28;20230;-79
2021/09/10 08:00:12;;;;;;;8.40;4.80;;;;;;;21.00;100.00;101578.91;5020246;28;20225;-81
2021/09/10 08:02:38;;;;;;;15.20;4.60;;;;;;;21.22;100.00;101581.16;5040154;28;20420;-83
2021/09/10 08:05:04;;;;;;;22.03;4.90;;;;;;;21.33;100.00;101575.66;5034393;28;20255;-82
2021/09/10 08:07:30;;;;;;;14.43;4.70;;;;;;;21.41;100.00;101572.22;5030301;28;20170;-83
2021/09/10 08:09:56;;;;;;;11.23;4.70;;;;;;;21.42;100.00;101568.53;5032549;28;20608;-81
2021/09/10 08:12:21;;;;;;;6.33;4.20;;;;;;;21.27;100.00;101573.56;5016280;28;20182;-83
2021/09/10 08:14:47;;;;;;;9.80;4.40;;;;;;;21.28;100.00;101575.25;5025671;28;20181;-84
2021/09/10 08:17:12;;;;;;;8.10;4.30;;;;;;;21.56;100.00;101573.34;5035860;28;20204;-73
2021/09/10 08:19:38;;;;;;;8.57;4.20;;;;;;;21.76;100.00;101567.81;5020546;28;20189;-83
2021/09/10 08:22:03;;;;;;;13.97;6.30;;;;;;;21.83;100.00;101572.41;5013741;28;20181;-82
2021/09/10 08:24:29;;;;;;;10.53;4.50;;;;;;;21.94;100.00;101567.81;5028688;28;20170;-77
2021/09/10 08:26:55;;;;;;;10.60;4.20;;;;;;;22.19;100.00;101560.81;5034843;28;20158;-80
2021/09/10 08:29:20;;;;;;;9.73;4.53;;;;;;;22.45;100.00;101564.31;5034473;28;20210;-80
2021/09/10 08:31:46;;;;;;;13.60;5.00;;;;;;;22.29;100.00;101559.72;5028817;28;20225;-79
2021/09/10 08:34:12;;;;;;;11.13;4.40;;;;;;;22.37;100.00;101559.75;5026571;28;20188;-87
2021/09/10 08:36:38;;;;;;;11.90;4.90;;;;;;;22.39;100.00;101564.94;5025747;28;20251;-82
2021/09/10 08:39:04;;;;;;;9.07;4.00;;;;;;;22.52;100.00;101561.81;5022008;28;20812;-80
2021/09/10 08:41:34;;;;;;;11.30;4.77;;;;;;;22.68;100.00;101556.56;5026881;28;20178;-85
2021/09/10 08:44:05;;;;;;;8.97;3.30;;;;;;;22.92;100.00;101559.34;5020955;28;20428;-85
2021/09/10 08:46:31;;;;;;;11.87;5.90;;;;;;;23.04;100.00;101553.66;5017465;28;20924;-83
2021/09/10 08:48:56;;;;;;;13.77;4.47;;;;;;;23.37;100.00;101552.75;5024808;28;20422;-81
2021/09/10 08:51:22;;;;;;;13.13;4.67;;;;;;;23.60;100.00;101550.25;5029152;28;20409;-82
2021/09/10 08:53:48;;;;;;;9.53;4.13;;;;;;;23.63;100.00;101541.88;5034714;28;20534;-79
2021/09/10 08:56:14;;;;;;;11.83;5.00;;;;;;;23.64;100.00;101534.66;5031992;28;20204;-84
2021/09/10 08:58:40;;;;;;;7.10;4.00;;;;;;;23.92;100.00;101540.50;5019985;28;20421;-79
2021/09/10 09:01:05;;;;;;;6.57;4.10;;;;;;;24.16;100.00;101529.72;5030576;28;20413;-78
2021/09/10 09:03:33;;;;;;;7.67;3.87;;;;;;;24.24;100.00;101529.69;5026167;28;20611;-85
2021/09/10 09:05:58;;;;;;;11.03;4.60;;;;;;;24.52;100.00;101530.13;5025128;28;20182;-77
2021/09/10 09:08:25;;;;;;;9.87;4.10;;;;;;;24.61;100.00;101526.38;5033616;28;20408;-81
2021/09/10 09:10:59;;;;;;;9.10;3.40;;;;;;;24.56;100.00;101526.09;5036529;28;20203;-91
2021/09/10 09:13:40;;;;;;;9.40;4.23;;;;;;;24.45;100.00;101523.78;5035682;28;20928;-87
2021/09/10 09:16:24;;;;;;;7.17;3.70;;;;;;;24.30;100.00;101512.88;5032198;28;20552;-91
2021/09/10 09:18:59;;;;;;;6.60;3.53;;;;;;;24.26;100.00;101521.47;5029041;28;20503;-87
2021/09/10 09:21:36;;;;;;;7.80;3.90;;;;;;;24.22;100.00;101504.03;5034156;28;20486;-83
2021/09/10 09:24:18;;;;;;;7.57;4.17;;;;;;;24.51;100.00;101506.97;5035638;28;20446;-85
2021/09/10 09:26:45;;;;;;;9.27;3.60;;;;;;;24.55;100.00;101500.22;5031064;28;20418;-86
2021/09/10 09:29:17;;;;;;;11.00;4.77;;;;;;;24.56;100.00;101509.97;5018003;28;20514;-81
2021/09/10 09:31:56;;;;;;;6.60;3.70;;;;;;;24.91;100.00;101497.00;5021074;28;20404;-90
2021/09/10 09:34:49;;;;;;;8.00;3.80;;;;;;;25.55;100.00;101497.56;5022657;28;20423;-74
2021/09/10 09:37:16;;;;;;;9.57;3.50;;;;;;;25.74;100.00;101493.53;5042410;28;20532;-81
2021/09/10 09:40:01;;;;;;;7.90;3.50;;;;;;;25.79;100.00;101493.00;5032420;28;20747;-77
2021/09/10 09:42:31;;;;;;;18.53;4.23;;;;;;;25.79;100.00;101485.75;5034762;28;20563;-71
2021/09/10 09:45:16;;;;;;;11.80;3.90;;;;;;;25.67;100.00;101479.94;5033082;28;20568;-76
2021/09/10 09:47:43;;;;;;;8.90;3.57;;;;;;;25.41;100.00;101492.97;5043462;28;20407;-80
2021/09/10 09:50:17;;;;;;;7.67;4.30;;;;;;;25.64;100.00;101488.38;5033865;28;20417;-81
2021/09/10 09:52:44;;;;;;;8.33;4.40;;;;;;;26.11;100.00;101481.03;5019472;28;20799;-80
2021/09/10 09:55:12;;;;;;;6.80;4.20;;;;;;;26.33;96.08;101487.34;5031673;28;20409;-77
2021/09/10 09:57:39;;;;;;;9.90;4.47;;;;;;;25.97;99.12;101488.06;5034470;28;20751;-78
2021/09/10 10:00:06;;;;;;;10.60;4.10;;;;;;;26.07;99.09;101480.56;5032914;28;20404;-81
2021/09/10 10:02:35;;;;;;;11.00;4.27;;;;;;;26.23;100.00;101484.94;5033788;28;20401;-83
2021/09/10 10:05:01;;;;;;;9.17;4.83;;;;;;;26.54;93.65;101487.44;5022544;28;20499;-80
2021/09/10 10:07:35;;;;;;;7.47;4.03;;;;;;;26.31;100.00;101484.81;5013412;28;20385;-81
2021/09/10 10:10:01;;;;;;;7.93;4.10;;;;;;;26.31;100.00;101484.00;5010898;28;20488;-78
2021/09/10 10:12:27;;;;;;;9.60;4.40;;;;;;;26.24;100.00;101482.03;5025115;28;20554;-81
2021/09/10 10:14:53;;;;;;;7.40;4.00;;;;;;;26.36;100.00;101492.34;5019130;28;20524;-82
2021/09/10 10:17:48;;;;;;;13.43;4.50;;;;;;;26.31;100.00;101490.22;5019918;28;20501;-83
2021/09/10 10:20:44;;;;;;;16.40;4.80;;;;;;;26.23;100.00;101487.63;5041637;28;20195;-78
2021/09/10 10:23:44;;;;;;;8.70;4.30;;;;;;;26.22;100.00;101491.31;5043188;28;20492;-77
2021/09/10 10:26:36;;;;;;;8.70;4.33;;;;;;;25.92;100.00;101491.34;5011292;28;20488;-79
2021/09/10 10:29:14;;;;;;;9.47;4.57;;;;;;;25.95;100.00;101490.13;5022572;28;20460;-74
2021/09/10 10:31:58;;;;;;;8.30;3.57;;;;;;;25.97;100.00;101488.06;5025018;28;20456;-73
2021/09/10 10:34:25;;;;;;;6.60;3.50;;;;;;;25.89;100.00;101480.09;5029371;28;20428;-73
2021/09/10 10:36:51;;;;;;;12.13;3.83;;;;;;;25.96;100.00;101481.84;5020610;28;20456;-73
2021/09/10 10:39:26;;;;;;;6.00;3.80;;;;;;;26.18;100.00;101471.16;5028280;28;20427;-76
2021/09/10 10:41:55;;;;;;;8.37;4.43;;;;;;;26.32;100.00;101469.50;5028475;28;20408;-77
2021/09/10 10:44:30;;;;;;;13.03;4.50;;;;;;;26.33;100.00;101471.16;5031021;28;20448;-78
2021/09/10 10:47:05;;;;;;;13.97;4.03;;;;;;;26.64;100.00;101470.94;5030790;28;20408;-79
2021/09/10 10:49:39;;;;;;;42.83;6.87;;;;;;;26.93;100.00;101461.94;5026221;28;20415;-79
2021/09/10 10:52:32;;;;;;;16.10;4.33;;;;;;;27.17;100.00;101468.81;5024624;28;20482;-79
2021/09/10 10:55:21;;;;;;;9.87;4.03;;;;;;;27.11;100.00;101465.03;5029365;28;20563;-77
2021/09/10 10:57:52;;;;;;;15.07;5.63;;;;;;;27.04;100.00;101456.88;5027316;28;20451;-79
2021/09/10 11:00:30;;;;;;;20.80;15.63;;;;;;;26.96;100.00;101456.13;5030181;28;20409;-79
2021/09/10 11:03:14;;;;;;;17.33;4.60;;;;;;;26.85;100.00;101460.19;5030562;28;20464;-79
2021/09/10 11:05:42;;;;;;;9.80;5.60;;;;;;;26.91;100.00;101462.13;5024319;28;20774;-73
2021/09/10 11:08:08;;;;;;;11.17;4.67;;;;;;;27.05;100.00;101455.00;5030402;28;20409;-74
2021/09/10 11:10:33;;;;;;;13.87;4.87;;;;;;;27.15;100.00;101455.53;5025118;28;20918;-75
2021/09/10 11:12:59;;;;;;;11.03;4.33;;;;;;;27.22;100.00;101459.13;5026751;28;20973;-76
2021/09/10 11:15:27;;;;;;;10.90;3.40;;;;;;;27.39;100.00;101454.28;5027256;28;20177;-77